sensor_id;sensor_type;location;lat;lon;timestamp;P1;durP1;ratioP1;P2;durP2;ratioP2
75048;SDS011;63803;53.120;8.764;2023-02-14T00:01:21;6.35;;;3.45;;
75048;SDS011;63803;53.120;8.764;2023-02-14T00:03:47;7.93;;;4.28;;
75048;SDS011;63803;53.120;8.764;2023-02-14T00:06:13;15.18;;;5.32;;
75048;SDS011;63803;53.120;8.764;2023-02-14T00:08:40;16.90;;;6.05;;
75048;SDS011;63803;53.120;8.764;2023-02-14T00:11:08;24.98;;;7.15;;
75048;SDS011;63803;53.120;8.764;2023-02-14T00:13:34;17.67;;;6.50;;
75048;SDS011;63803;53.120;8.764;2023-02-14T00:16:00;17.35;;;6.38;;
75048;SDS011;63803;53.120;8.764;2023-02-14T00:18:25;16.30;;;6.22;;
75048;SDS011;63803;53.120;8.764;2023-02-14T00:21:09;18.63;;;6.45;;
75048;SDS011;63803;53.120;8.764;2023-02-14T00:23:34;17.90;;;7.00;;
75048;SDS011;63803;53.120;8.764;2023-02-14T00:26:00;21.00;;;7.43;;
75048;SDS011;63803;53.120;8.764;2023-02-14T00:28:25;16.08;;;6.90;;
75048;SDS011;63803;53.120;8.764;2023-02-14T00:30:51;16.67;;;6.95;;
75048;SDS011;63803;53.120;8.764;2023-02-14T00:33:16;14.80;;;6.47;;
75048;SDS011;63803;53.120;8.764;2023-02-14T00:35:41;15.85;;;6.50;;
75048;SDS011;63803;53.120;8.764;2023-02-14T00:38:06;21.80;;;7.88;;
75048;SDS011;63803;53.120;8.764;2023-02-14T00:40:32;19.27;;;6.80;;
75048;SDS011;63803;53.120;8.764;2023-02-14T00:42:57;13.10;;;6.38;;
75048;SDS011;63803;53.120;8.764;2023-02-14T00:45:22;17.52;;;7.10;;
75048;SDS011;63803;53.120;8.764;2023-02-14T00:47:48;12.98;;;6.30;;
75048;SDS011;63803;53.120;8.764;2023-02-14T00:50:13;16.02;;;7.05;;
75048;SDS011;63803;53.120;8.764;2023-02-14T00:52:38;15.07;;;6.35;;
75048;SDS011;63803;53.120;8.764;2023-02-14T00:55:04;13.35;;;6.60;;
75048;SDS011;63803;53.120;8.764;2023-02-14T00:57:29;12.85;;;6.60;;
75048;SDS011;63803;53.120;8.764;2023-02-14T00:59:55;15.30;;;7.55;;
75048;SDS011;63803;53.120;8.764;2023-02-14T01:02:20;13.30;;;6.55;;
75048;SDS011;63803;53.120;8.764;2023-02-14T01:04:46;14.73;;;6.57;;
75048;SDS011;63803;53.120;8.764;2023-02-14T01:07:11;18.80;;;6.88;;
75048;SDS011;63803;53.120;8.764;2023-02-14T01:09:36;16.20;;;7.05;;
75048;SDS011;63803;53.120;8.764;2023-02-14T01:12:02;17.55;;;7.45;;
75048;SDS011;63803;53.120;8.764;2023-02-14T01:14:27;11.93;;;6.38;;
75048;SDS011;63803;53.120;8.764;2023-02-14T01:16:52;20.25;;;6.88;;
75048;SDS011;63803;53.120;8.764;2023-02-14T01:19:18;15.93;;;6.80;;
75048;SDS011;63803;53.120;8.764;2023-02-14T01:21:43;15.48;;;7.00;;
75048;SDS011;63803;53.120;8.764;2023-02-14T01:24:08;12.38;;;6.40;;
75048;SDS011;63803;53.120;8.764;2023-02-14T01:26:35;11.60;;;6.57;;
75048;SDS011;63803;53.120;8.764;2023-02-14T01:29:02;14.50;;;6.72;;
75048;SDS011;63803;53.120;8.764;2023-02-14T01:31:29;13.27;;;7.28;;
75048;SDS011;63803;53.120;8.764;2023-02-14T01:33:56;11.05;;;7.18;;
75048;SDS011;63803;53.120;8.764;2023-02-14T01:36:23;13.68;;;7.13;;
75048;SDS011;63803;53.120;8.764;2023-02-14T01:38:55;13.45;;;6.68;;
75048;SDS011;63803;53.120;8.764;2023-02-14T01:41:23;12.10;;;7.03;;
75048;SDS011;63803;53.120;8.764;2023-02-14T01:44:00;14.60;;;7.25;;
75048;SDS011;63803;53.120;8.764;2023-02-14T01:46:49;14.40;;;7.60;;
75048;SDS011;63803;53.120;8.764;2023-02-14T01:49:21;13.68;;;6.68;;
75048;SDS011;63803;53.120;8.764;2023-02-14T01:51:54;16.30;;;6.97;;
75048;SDS011;63803;53.120;8.764;2023-02-14T01:54:25;12.18;;;6.82;;
75048;SDS011;63803;53.120;8.764;2023-02-14T01:56:53;15.93;;;7.68;;
75048;SDS011;63803;53.120;8.764;2023-02-14T01:59:24;14.15;;;7.72;;
75048;SDS011;63803;53.120;8.764;2023-02-14T02:01:54;13.27;;;7.43;;
75048;SDS011;63803;53.120;8.764;2023-02-14T02:04:24;14.52;;;7.57;;
75048;SDS011;63803;53.120;8.764;2023-02-14T02:06:54;12.90;;;7.30;;
75048;SDS011;63803;53.120;8.764;2023-02-14T02:10:05;15.85;;;7.40;;
75048;SDS011;63803;53.120;8.764;2023-02-14T02:12:12;15.43;;;7.53;;
75048;SDS011;63803;53.120;8.764;2023-02-14T02:14:38;15.02;;;6.95;;
75048;SDS011;63803;53.120;8.764;2023-02-14T02:31:10;19.02;;;8.18;;
75048;SDS011;63803;53.120;8.764;2023-02-14T02:39:32;16.52;;;7.90;;
75048;SDS011;63803;53.120;8.764;2023-02-14T02:44:39;16.65;;;8.27;;
75048;SDS011;63803;53.120;8.764;2023-02-14T02:58:59;17.02;;;11.48;;
75048;SDS011;63803;53.120;8.764;2023-02-14T03:01:32;18.08;;;10.68;;
75048;SDS011;63803;53.120;8.764;2023-02-14T03:04:02;16.23;;;11.13;;
75048;SDS011;63803;53.120;8.764;2023-02-14T03:06:49;17.48;;;9.98;;
75048;SDS011;63803;53.120;8.764;2023-02-14T03:14:40;18.45;;;9.68;;
75048;SDS011;63803;53.120;8.764;2023-02-14T03:20:00;16.20;;;9.32;;
75048;SDS011;63803;53.120;8.764;2023-02-14T03:22:50;14.35;;;8.57;;
75048;SDS011;63803;53.120;8.764;2023-02-14T03:27:56;15.10;;;9.38;;
75048;SDS011;63803;53.120;8.764;2023-02-14T03:30:33;14.35;;;8.98;;
75048;SDS011;63803;53.120;8.764;2023-02-14T03:33:07;14.13;;;9.27;;
75048;SDS011;63803;53.120;8.764;2023-02-14T03:41:13;16.40;;;9.60;;
75048;SDS011;63803;53.120;8.764;2023-02-14T03:43:49;13.82;;;9.02;;
75048;SDS011;63803;53.120;8.764;2023-02-14T03:46:25;13.20;;;7.97;;
75048;SDS011;63803;53.120;8.764;2023-02-14T03:49:02;12.50;;;8.32;;
75048;SDS011;63803;53.120;8.764;2023-02-14T03:51:30;12.63;;;8.63;;
75048;SDS011;63803;53.120;8.764;2023-02-14T03:53:58;14.80;;;8.55;;
75048;SDS011;63803;53.120;8.764;2023-02-14T03:56:36;12.18;;;8.50;;
75048;SDS011;63803;53.120;8.764;2023-02-14T03:59:08;15.80;;;8.57;;
75048;SDS011;63803;53.120;8.764;2023-02-14T04:01:41;12.55;;;8.05;;
75048;SDS011;63803;53.120;8.764;2023-02-14T04:04:11;10.50;;;7.85;;
75048;SDS011;63803;53.120;8.764;2023-02-14T04:06:39;15.93;;;8.32;;
75048;SDS011;63803;53.120;8.764;2023-02-14T04:09:04;12.40;;;8.43;;
75048;SDS011;63803;53.120;8.764;2023-02-14T04:11:31;12.20;;;7.75;;
75048;SDS011;63803;53.120;8.764;2023-02-14T04:13:59;13.50;;;8.50;;
75048;SDS011;63803;53.120;8.764;2023-02-14T04:16:25;11.73;;;8.52;;
75048;SDS011;63803;53.120;8.764;2023-02-14T04:18:50;12.85;;;8.45;;
75048;SDS011;63803;53.120;8.764;2023-02-14T04:21:34;12.93;;;7.95;;
75048;SDS011;63803;53.120;8.764;2023-02-14T04:23:59;10.85;;;7.75;;
75048;SDS011;63803;53.120;8.764;2023-02-14T04:26:24;11.30;;;8.05;;
75048;SDS011;63803;53.120;8.764;2023-02-14T04:28:50;12.93;;;8.27;;
75048;SDS011;63803;53.120;8.764;2023-02-14T04:31:15;12.95;;;8.88;;
75048;SDS011;63803;53.120;8.764;2023-02-14T04:33:41;13.20;;;7.63;;
75048;SDS011;63803;53.120;8.764;2023-02-14T04:36:08;10.82;;;7.63;;
75048;SDS011;63803;53.120;8.764;2023-02-14T04:38:33;11.30;;;7.47;;
75048;SDS011;63803;53.120;8.764;2023-02-14T04:40:59;11.18;;;7.70;;
75048;SDS011;63803;53.120;8.764;2023-02-14T04:43:24;11.43;;;7.40;;
75048;SDS011;63803;53.120;8.764;2023-02-14T04:45:49;10.45;;;7.80;;
75048;SDS011;63803;53.120;8.764;2023-02-14T04:48:15;11.18;;;7.35;;
75048;SDS011;63803;53.120;8.764;2023-02-14T04:50:40;13.57;;;7.95;;
75048;SDS011;63803;53.120;8.764;2023-02-14T04:53:06;10.05;;;7.10;;
75048;SDS011;63803;53.120;8.764;2023-02-14T04:55:31;10.38;;;7.60;;
75048;SDS011;63803;53.120;8.764;2023-02-14T04:57:56;11.57;;;7.75;;
75048;SDS011;63803;53.120;8.764;2023-02-14T05:00:22;10.18;;;7.28;;
75048;SDS011;63803;53.120;8.764;2023-02-14T05:02:48;11.95;;;7.50;;
75048;SDS011;63803;53.120;8.764;2023-02-14T05:05:13;11.23;;;7.70;;
75048;SDS011;63803;53.120;8.764;2023-02-14T05:07:39;12.27;;;7.63;;
75048;SDS011;63803;53.120;8.764;2023-02-14T05:10:04;11.90;;;7.55;;
75048;SDS011;63803;53.120;8.764;2023-02-14T05:12:30;9.45;;;7.40;;
75048;SDS011;63803;53.120;8.764;2023-02-14T05:14:55;8.63;;;6.78;;
75048;SDS011;63803;53.120;8.764;2023-02-14T05:17:22;9.50;;;7.43;;
75048;SDS011;63803;53.120;8.764;2023-02-14T05:19:47;14.43;;;6.68;;
75048;SDS011;63803;53.120;8.764;2023-02-14T05:22:13;9.82;;;6.22;;
75048;SDS011;63803;53.120;8.764;2023-02-14T05:24:38;12.07;;;7.63;;
75048;SDS011;63803;53.120;8.764;2023-02-14T05:27:03;9.50;;;6.45;;
75048;SDS011;63803;53.120;8.764;2023-02-14T05:29:29;9.23;;;6.43;;
75048;SDS011;63803;53.120;8.764;2023-02-14T05:31:54;13.52;;;6.70;;
75048;SDS011;63803;53.120;8.764;2023-02-14T05:34:22;9.70;;;7.22;;
75048;SDS011;63803;53.120;8.764;2023-02-14T05:36:48;10.20;;;7.10;;
75048;SDS011;63803;53.120;8.764;2023-02-14T05:39:13;8.70;;;6.80;;
75048;SDS011;63803;53.120;8.764;2023-02-14T05:41:39;8.20;;;6.30;;
75048;SDS011;63803;53.120;8.764;2023-02-14T05:44:05;8.05;;;5.90;;
75048;SDS011;63803;53.120;8.764;2023-02-14T05:46:30;9.88;;;7.05;;
75048;SDS011;63803;53.120;8.764;2023-02-14T05:48:56;9.90;;;7.00;;
75048;SDS011;63803;53.120;8.764;2023-02-14T05:51:21;9.63;;;6.68;;
75048;SDS011;63803;53.120;8.764;2023-02-14T05:53:46;10.07;;;6.97;;
75048;SDS011;63803;53.120;8.764;2023-02-14T05:56:12;7.65;;;6.38;;
75048;SDS011;63803;53.120;8.764;2023-02-14T05:58:37;8.35;;;6.70;;
75048;SDS011;63803;53.120;8.764;2023-02-14T06:01:02;9.68;;;6.63;;
75048;SDS011;63803;53.120;8.764;2023-02-14T06:03:28;9.75;;;6.35;;
75048;SDS011;63803;53.120;8.764;2023-02-14T06:05:53;9.57;;;6.38;;
75048;SDS011;63803;53.120;8.764;2023-02-14T06:08:19;13.35;;;6.25;;
75048;SDS011;63803;53.120;8.764;2023-02-14T06:10:45;8.35;;;6.50;;
75048;SDS011;63803;53.120;8.764;2023-02-14T06:13:10;8.93;;;6.43;;
75048;SDS011;63803;53.120;8.764;2023-02-14T06:15:36;8.20;;;6.50;;
75048;SDS011;63803;53.120;8.764;2023-02-14T06:18:02;7.63;;;6.03;;
75048;SDS011;63803;53.120;8.764;2023-02-14T06:20:28;10.63;;;6.30;;
75048;SDS011;63803;53.120;8.764;2023-02-14T06:22:54;9.20;;;6.45;;
75048;SDS011;63803;53.120;8.764;2023-02-14T06:25:20;6.85;;;6.10;;
75048;SDS011;63803;53.120;8.764;2023-02-14T06:27:47;9.15;;;6.82;;
75048;SDS011;63803;53.120;8.764;2023-02-14T06:30:13;18.08;;;7.05;;
75048;SDS011;63803;53.120;8.764;2023-02-14T06:32:39;9.38;;;6.68;;
75048;SDS011;63803;53.120;8.764;2023-02-14T06:35:04;14.38;;;5.97;;
75048;SDS011;63803;53.120;8.764;2023-02-14T06:37:30;8.95;;;6.13;;
75048;SDS011;63803;53.120;8.764;2023-02-14T06:39:56;11.48;;;7.13;;
75048;SDS011;63803;53.120;8.764;2023-02-14T06:42:21;8.88;;;6.35;;
75048;SDS011;63803;53.120;8.764;2023-02-14T06:44:46;7.43;;;5.70;;
75048;SDS011;63803;53.120;8.764;2023-02-14T06:47:12;7.35;;;5.85;;
75048;SDS011;63803;53.120;8.764;2023-02-14T06:49:37;8.77;;;6.13;;
75048;SDS011;63803;53.120;8.764;2023-02-14T06:52:03;8.88;;;6.22;;
75048;SDS011;63803;53.120;8.764;2023-02-14T06:54:29;7.18;;;5.97;;
75048;SDS011;63803;53.120;8.764;2023-02-14T06:56:54;8.07;;;6.18;;
75048;SDS011;63803;53.120;8.764;2023-02-14T06:59:20;7.97;;;5.53;;
75048;SDS011;63803;53.120;8.764;2023-02-14T07:01:46;8.07;;;5.82;;
75048;SDS011;63803;53.120;8.764;2023-02-14T07:04:11;9.57;;;5.80;;
75048;SDS011;63803;53.120;8.764;2023-02-14T07:06:37;8.65;;;5.90;;
75048;SDS011;63803;53.120;8.764;2023-02-14T07:09:02;7.30;;;5.95;;
75048;SDS011;63803;53.120;8.764;2023-02-14T07:11:28;8.75;;;5.25;;
75048;SDS011;63803;53.120;8.764;2023-02-14T07:13:53;9.38;;;5.88;;
75048;SDS011;63803;53.120;8.764;2023-02-14T07:16:19;7.72;;;6.07;;
75048;SDS011;63803;53.120;8.764;2023-02-14T07:18:44;9.73;;;5.57;;
75048;SDS011;63803;53.120;8.764;2023-02-14T07:21:10;7.85;;;5.70;;
75048;SDS011;63803;53.120;8.764;2023-02-14T07:23:35;6.78;;;5.40;;
75048;SDS011;63803;53.120;8.764;2023-02-14T07:26:00;6.75;;;5.32;;
75048;SDS011;63803;53.120;8.764;2023-02-14T07:28:26;8.38;;;5.00;;
75048;SDS011;63803;53.120;8.764;2023-02-14T07:30:51;6.07;;;5.00;;
75048;SDS011;63803;53.120;8.764;2023-02-14T07:33:17;7.18;;;5.15;;
75048;SDS011;63803;53.120;8.764;2023-02-14T07:35:42;7.75;;;5.43;;
75048;SDS011;63803;53.120;8.764;2023-02-14T07:38:07;6.93;;;5.10;;
75048;SDS011;63803;53.120;8.764;2023-02-14T07:40:33;8.15;;;5.00;;
75048;SDS011;63803;53.120;8.764;2023-02-14T07:42:58;6.78;;;4.80;;
75048;SDS011;63803;53.120;8.764;2023-02-14T07:45:25;5.95;;;4.60;;
75048;SDS011;63803;53.120;8.764;2023-02-14T07:47:52;5.03;;;4.10;;
75048;SDS011;63803;53.120;8.764;2023-02-14T07:50:19;5.88;;;4.75;;
75048;SDS011;63803;53.120;8.764;2023-02-14T07:52:46;5.63;;;4.32;;
75048;SDS011;63803;53.120;8.764;2023-02-14T07:55:11;7.40;;;4.78;;
75048;SDS011;63803;53.120;8.764;2023-02-14T07:57:37;7.53;;;4.57;;
75048;SDS011;63803;53.120;8.764;2023-02-14T08:00:03;7.30;;;4.05;;
75048;SDS011;63803;53.120;8.764;2023-02-14T08:02:29;7.40;;;4.38;;
75048;SDS011;63803;53.120;8.764;2023-02-14T08:04:54;6.90;;;4.10;;
75048;SDS011;63803;53.120;8.764;2023-02-14T08:07:20;9.73;;;4.22;;
75048;SDS011;63803;53.120;8.764;2023-02-14T08:09:46;8.02;;;4.32;;
75048;SDS011;63803;53.120;8.764;2023-02-14T08:12:12;10.30;;;3.50;;
75048;SDS011;63803;53.120;8.764;2023-02-14T08:14:56;6.00;;;3.80;;
75048;SDS011;63803;53.120;8.764;2023-02-14T08:17:41;7.53;;;3.53;;
75048;SDS011;63803;53.120;8.764;2023-02-14T08:20:06;6.38;;;3.90;;
75048;SDS011;63803;53.120;8.764;2023-02-14T08:22:32;8.82;;;3.67;;
75048;SDS011;63803;53.120;8.764;2023-02-14T08:24:57;7.18;;;3.85;;
75048;SDS011;63803;53.120;8.764;2023-02-14T08:27:23;4.30;;;3.35;;
75048;SDS011;63803;53.120;8.764;2023-02-14T08:29:48;8.65;;;3.42;;
75048;SDS011;63803;53.120;8.764;2023-02-14T08:32:13;3.53;;;3.20;;
75048;SDS011;63803;53.120;8.764;2023-02-14T08:34:39;6.63;;;3.50;;
75048;SDS011;63803;53.120;8.764;2023-02-14T08:37:05;4.40;;;3.40;;
75048;SDS011;63803;53.120;8.764;2023-02-14T08:39:30;7.25;;;3.00;;
75048;SDS011;63803;53.120;8.764;2023-02-14T08:41:56;4.38;;;3.53;;
75048;SDS011;63803;53.120;8.764;2023-02-14T08:44:22;6.53;;;3.55;;
75048;SDS011;63803;53.120;8.764;2023-02-14T08:46:47;5.07;;;3.47;;
75048;SDS011;63803;53.120;8.764;2023-02-14T08:49:13;3.92;;;3.17;;
75048;SDS011;63803;53.120;8.764;2023-02-14T08:51:38;5.45;;;3.40;;
75048;SDS011;63803;53.120;8.764;2023-02-14T08:54:03;4.35;;;3.22;;
75048;SDS011;63803;53.120;8.764;2023-02-14T08:56:29;4.68;;;3.17;;
75048;SDS011;63803;53.120;8.764;2023-02-14T08:58:54;4.00;;;2.97;;
75048;SDS011;63803;53.120;8.764;2023-02-14T09:01:19;4.35;;;3.28;;
75048;SDS011;63803;53.120;8.764;2023-02-14T09:03:45;4.47;;;3.42;;
75048;SDS011;63803;53.120;8.764;2023-02-14T09:06:13;4.57;;;3.20;;
75048;SDS011;63803;53.120;8.764;2023-02-14T09:08:41;4.32;;;3.10;;
75048;SDS011;63803;53.120;8.764;2023-02-14T09:11:15;3.97;;;3.38;;
75048;SDS011;63803;53.120;8.764;2023-02-14T09:13:46;5.45;;;2.80;;
75048;SDS011;63803;53.120;8.764;2023-02-14T09:16:12;4.55;;;3.28;;
75048;SDS011;63803;53.120;8.764;2023-02-14T09:18:41;6.25;;;3.65;;
75048;SDS011;63803;53.120;8.764;2023-02-14T09:21:08;6.68;;;3.10;;
75048;SDS011;63803;53.120;8.764;2023-02-14T09:23:35;5.07;;;3.20;;
75048;SDS011;63803;53.120;8.764;2023-02-14T09:26:02;5.80;;;3.38;;
75048;SDS011;63803;53.120;8.764;2023-02-14T09:28:28;7.18;;;3.70;;
75048;SDS011;63803;53.120;8.764;2023-02-14T09:30:54;6.00;;;3.17;;
75048;SDS011;63803;53.120;8.764;2023-02-14T09:33:19;4.40;;;3.45;;
75048;SDS011;63803;53.120;8.764;2023-02-14T09:35:45;7.28;;;3.67;;
75048;SDS011;63803;53.120;8.764;2023-02-14T09:38:28;4.70;;;3.47;;
75048;SDS011;63803;53.120;8.764;2023-02-14T09:40:54;8.95;;;3.35;;
75048;SDS011;63803;53.120;8.764;2023-02-14T09:43:26;4.45;;;3.17;;
75048;SDS011;63803;53.120;8.764;2023-02-14T09:45:57;5.18;;;3.70;;
75048;SDS011;63803;53.120;8.764;2023-02-14T09:48:37;5.05;;;3.38;;
75048;SDS011;63803;53.120;8.764;2023-02-14T09:51:10;5.45;;;3.33;;
75048;SDS011;63803;53.120;8.764;2023-02-14T09:53:39;5.50;;;3.30;;
75048;SDS011;63803;53.120;8.764;2023-02-14T09:56:23;4.57;;;3.50;;
75048;SDS011;63803;53.120;8.764;2023-02-14T09:59:10;4.28;;;3.13;;
75048;SDS011;63803;53.120;8.764;2023-02-14T10:01:47;5.97;;;3.38;;
75048;SDS011;63803;53.120;8.764;2023-02-14T10:10:06;5.68;;;3.10;;
75048;SDS011;63803;53.120;8.764;2023-02-14T10:12:46;5.18;;;3.08;;
75048;SDS011;63803;53.120;8.764;2023-02-14T10:18:02;4.50;;;3.30;;
75048;SDS011;63803;53.120;8.764;2023-02-14T10:20:41;6.72;;;3.70;;
75048;SDS011;63803;53.120;8.764;2023-02-14T10:25:53;5.85;;;2.80;;
75048;SDS011;63803;53.120;8.764;2023-02-14T10:28:35;5.85;;;3.17;;
75048;SDS011;63803;53.120;8.764;2023-02-14T10:33:50;6.78;;;3.50;;
75048;SDS011;63803;53.120;8.764;2023-02-14T10:41:28;6.93;;;3.00;;
75048;SDS011;63803;53.120;8.764;2023-02-14T10:54:24;9.30;;;3.17;;
75048;SDS011;63803;53.120;8.764;2023-02-14T11:00:07;5.50;;;3.67;;
75048;SDS011;63803;53.120;8.764;2023-02-14T11:02:45;4.15;;;3.15;;
75048;SDS011;63803;53.120;8.764;2023-02-14T11:05:25;5.63;;;2.97;;
75048;SDS011;63803;53.120;8.764;2023-02-14T11:07:55;6.82;;;3.20;;
75048;SDS011;63803;53.120;8.764;2023-02-14T11:10:24;4.57;;;3.10;;
75048;SDS011;63803;53.120;8.764;2023-02-14T11:12:52;5.22;;;3.33;;
75048;SDS011;63803;53.120;8.764;2023-02-14T11:15:22;5.70;;;3.33;;
75048;SDS011;63803;53.120;8.764;2023-02-14T11:17:48;6.00;;;3.35;;
75048;SDS011;63803;53.120;8.764;2023-02-14T11:22:52;7.15;;;3.40;;
75048;SDS011;63803;53.120;8.764;2023-02-14T11:25:18;4.57;;;3.08;;
75048;SDS011;63803;53.120;8.764;2023-02-14T11:28:02;6.18;;;3.65;;
75048;SDS011;63803;53.120;8.764;2023-02-14T11:30:35;3.70;;;3.03;;
75048;SDS011;63803;53.120;8.764;2023-02-14T11:33:03;4.88;;;3.30;;
75048;SDS011;63803;53.120;8.764;2023-02-14T11:35:29;7.50;;;3.33;;
75048;SDS011;63803;53.120;8.764;2023-02-14T11:37:59;5.57;;;3.55;;
75048;SDS011;63803;53.120;8.764;2023-02-14T11:42:59;5.57;;;3.40;;
75048;SDS011;63803;53.120;8.764;2023-02-14T11:45:43;5.75;;;3.00;;
75048;SDS011;63803;53.120;8.764;2023-02-14T11:50:40;5.32;;;3.50;;
75048;SDS011;63803;53.120;8.764;2023-02-14T11:53:09;6.65;;;3.45;;
75048;SDS011;63803;53.120;8.764;2023-02-14T11:55:36;5.43;;;3.45;;
75048;SDS011;63803;53.120;8.764;2023-02-14T11:58:03;5.85;;;3.28;;
75048;SDS011;63803;53.120;8.764;2023-02-14T12:00:30;4.50;;;3.30;;
75048;SDS011;63803;53.120;8.764;2023-02-14T12:02:57;4.57;;;3.22;;
75048;SDS011;63803;53.120;8.764;2023-02-14T12:05:26;4.15;;;2.97;;
75048;SDS011;63803;53.120;8.764;2023-02-14T12:07:53;6.45;;;3.50;;
75048;SDS011;63803;53.120;8.764;2023-02-14T12:10:23;4.80;;;3.17;;
75048;SDS011;63803;53.120;8.764;2023-02-14T12:15:34;6.55;;;3.30;;
75048;SDS011;63803;53.120;8.764;2023-02-14T12:20:54;6.03;;;2.80;;
75048;SDS011;63803;53.120;8.764;2023-02-14T12:25:57;6.03;;;3.15;;
75048;SDS011;63803;53.120;8.764;2023-02-14T12:28:47;5.40;;;3.60;;
75048;SDS011;63803;53.120;8.764;2023-02-14T12:31:18;4.53;;;2.88;;
75048;SDS011;63803;53.120;8.764;2023-02-14T12:33:44;4.47;;;3.03;;
75048;SDS011;63803;53.120;8.764;2023-02-14T12:36:26;4.40;;;3.13;;
75048;SDS011;63803;53.120;8.764;2023-02-14T12:41:50;3.28;;;2.95;;
75048;SDS011;63803;53.120;8.764;2023-02-14T12:44:57;4.75;;;3.15;;
75048;SDS011;63803;53.120;8.764;2023-02-14T12:47:30;4.32;;;2.92;;
75048;SDS011;63803;53.120;8.764;2023-02-14T12:55:39;3.45;;;3.08;;
75048;SDS011;63803;53.120;8.764;2023-02-14T13:06:38;3.47;;;3.08;;
75048;SDS011;63803;53.120;8.764;2023-02-14T13:09:10;5.43;;;3.33;;
75048;SDS011;63803;53.120;8.764;2023-02-14T13:11:44;4.78;;;3.13;;
75048;SDS011;63803;53.120;8.764;2023-02-14T13:14:30;4.68;;;3.17;;
75048;SDS011;63803;53.120;8.764;2023-02-14T13:17:02;4.07;;;3.08;;
75048;SDS011;63803;53.120;8.764;2023-02-14T13:22:21;3.40;;;3.08;;
75048;SDS011;63803;53.120;8.764;2023-02-14T13:25:00;4.80;;;3.05;;
75048;SDS011;63803;53.120;8.764;2023-02-14T13:27:34;5.88;;;3.65;;
75048;SDS011;63803;53.120;8.764;2023-02-14T13:30:04;3.33;;;2.75;;
75048;SDS011;63803;53.120;8.764;2023-02-14T13:32:38;3.60;;;2.88;;
75048;SDS011;63803;53.120;8.764;2023-02-14T13:35:06;2.97;;;2.67;;
75048;SDS011;63803;53.120;8.764;2023-02-14T13:37:32;5.57;;;3.28;;
75048;SDS011;63803;53.120;8.764;2023-02-14T13:40:08;4.07;;;2.78;;
75048;SDS011;63803;53.120;8.764;2023-02-14T13:45:56;3.67;;;2.83;;
75048;SDS011;63803;53.120;8.764;2023-02-14T13:48:18;3.30;;;3.00;;
75048;SDS011;63803;53.120;8.764;2023-02-14T13:50:50;4.30;;;3.20;;
75048;SDS011;63803;53.120;8.764;2023-02-14T13:53:37;4.60;;;3.30;;
75048;SDS011;63803;53.120;8.764;2023-02-14T13:56:04;4.22;;;2.78;;
75048;SDS011;63803;53.120;8.764;2023-02-14T13:58:54;3.47;;;3.15;;
75048;SDS011;63803;53.120;8.764;2023-02-14T14:04:05;3.85;;;3.00;;
75048;SDS011;63803;53.120;8.764;2023-02-14T14:17:37;3.78;;;2.80;;
75048;SDS011;63803;53.120;8.764;2023-02-14T14:22:45;3.15;;;2.85;;
75048;SDS011;63803;53.120;8.764;2023-02-14T14:27:56;3.65;;;2.80;;
75048;SDS011;63803;53.120;8.764;2023-02-14T14:30:27;4.47;;;3.50;;
75048;SDS011;63803;53.120;8.764;2023-02-14T14:32:56;3.17;;;2.40;;
75048;SDS011;63803;53.120;8.764;2023-02-14T14:35:55;4.00;;;3.10;;
75048;SDS011;63803;53.120;8.764;2023-02-14T14:38:26;3.08;;;2.60;;
75048;SDS011;63803;53.120;8.764;2023-02-14T14:40:52;3.70;;;3.22;;
75048;SDS011;63803;53.120;8.764;2023-02-14T14:45:54;5.28;;;2.97;;
75048;SDS011;63803;53.120;8.764;2023-02-14T14:48:28;4.25;;;2.88;;
75048;SDS011;63803;53.120;8.764;2023-02-14T14:51:01;3.13;;;2.70;;
75048;SDS011;63803;53.120;8.764;2023-02-14T14:53:31;6.88;;;2.65;;
75048;SDS011;63803;53.120;8.764;2023-02-14T14:56:22;4.45;;;3.00;;
75048;SDS011;63803;53.120;8.764;2023-02-14T14:58:50;3.80;;;2.80;;
75048;SDS011;63803;53.120;8.764;2023-02-14T15:01:32;3.40;;;2.90;;
75048;SDS011;63803;53.120;8.764;2023-02-14T15:06:36;3.65;;;2.60;;
75048;SDS011;63803;53.120;8.764;2023-02-14T15:09:10;3.08;;;2.78;;
75048;SDS011;63803;53.120;8.764;2023-02-14T15:11:46;5.13;;;2.50;;
75048;SDS011;63803;53.120;8.764;2023-02-14T15:14:36;3.25;;;2.60;;
75048;SDS011;63803;53.120;8.764;2023-02-14T15:17:06;4.68;;;2.47;;
75048;SDS011;63803;53.120;8.764;2023-02-14T15:19:42;3.22;;;2.78;;
75048;SDS011;63803;53.120;8.764;2023-02-14T15:22:43;3.97;;;2.97;;
75048;SDS011;63803;53.120;8.764;2023-02-14T15:25:47;3.63;;;2.67;;
75048;SDS011;63803;53.120;8.764;2023-02-14T15:27:57;4.28;;;2.90;;
75048;SDS011;63803;53.120;8.764;2023-02-14T15:30:30;2.95;;;2.67;;
75048;SDS011;63803;53.120;8.764;2023-02-14T15:33:02;5.45;;;2.50;;
75048;SDS011;63803;53.120;8.764;2023-02-14T15:35:32;3.58;;;2.75;;
75048;SDS011;63803;53.120;8.764;2023-02-14T15:38:02;3.20;;;2.63;;
75048;SDS011;63803;53.120;8.764;2023-02-14T15:40:30;4.20;;;2.50;;
75048;SDS011;63803;53.120;8.764;2023-02-14T15:42:59;2.97;;;2.53;;
75048;SDS011;63803;53.120;8.764;2023-02-14T15:45:52;6.00;;;2.92;;
75048;SDS011;63803;53.120;8.764;2023-02-14T15:48:28;3.45;;;2.83;;
75048;SDS011;63803;53.120;8.764;2023-02-14T15:50:57;4.82;;;2.55;;
75048;SDS011;63803;53.120;8.764;2023-02-14T15:56:22;2.80;;;2.50;;
75048;SDS011;63803;53.120;8.764;2023-02-14T15:59:02;2.92;;;2.40;;
75048;SDS011;63803;53.120;8.764;2023-02-14T16:01:31;3.58;;;2.63;;
75048;SDS011;63803;53.120;8.764;2023-02-14T16:04:01;3.40;;;2.70;;
75048;SDS011;63803;53.120;8.764;2023-02-14T16:06:30;3.92;;;2.53;;
75048;SDS011;63803;53.120;8.764;2023-02-14T16:09:20;2.70;;;2.30;;
75048;SDS011;63803;53.120;8.764;2023-02-14T16:11:48;3.90;;;2.25;;
75048;SDS011;63803;53.120;8.764;2023-02-14T16:17:11;5.15;;;2.60;;
75048;SDS011;63803;53.120;8.764;2023-02-14T16:19:42;4.95;;;2.53;;
75048;SDS011;63803;53.120;8.764;2023-02-14T16:22:22;3.00;;;2.55;;
75048;SDS011;63803;53.120;8.764;2023-02-14T16:24:49;3.05;;;2.60;;
75048;SDS011;63803;53.120;8.764;2023-02-14T16:27:15;4.78;;;2.53;;
75048;SDS011;63803;53.120;8.764;2023-02-14T16:29:40;4.97;;;2.38;;
75048;SDS011;63803;53.120;8.764;2023-02-14T16:32:11;3.40;;;2.80;;
75048;SDS011;63803;53.120;8.764;2023-02-14T16:34:40;3.78;;;2.83;;
75048;SDS011;63803;53.120;8.764;2023-02-14T16:37:20;3.33;;;2.30;;
75048;SDS011;63803;53.120;8.764;2023-02-14T16:39:47;3.10;;;2.60;;
75048;SDS011;63803;53.120;8.764;2023-02-14T16:42:15;5.40;;;2.80;;
75048;SDS011;63803;53.120;8.764;2023-02-14T16:44:42;3.03;;;2.35;;
75048;SDS011;63803;53.120;8.764;2023-02-14T16:47:11;2.90;;;2.42;;
75048;SDS011;63803;53.120;8.764;2023-02-14T16:49:39;3.03;;;2.70;;
75048;SDS011;63803;53.120;8.764;2023-02-14T16:52:05;3.05;;;2.70;;
75048;SDS011;63803;53.120;8.764;2023-02-14T16:54:34;4.80;;;2.55;;
75048;SDS011;63803;53.120;8.764;2023-02-14T16:57:01;3.55;;;2.50;;
75048;SDS011;63803;53.120;8.764;2023-02-14T16:59:28;2.67;;;2.47;;
75048;SDS011;63803;53.120;8.764;2023-02-14T17:01:55;2.67;;;2.38;;
75048;SDS011;63803;53.120;8.764;2023-02-14T17:04:22;2.90;;;2.60;;
75048;SDS011;63803;53.120;8.764;2023-02-14T17:06:48;2.70;;;2.47;;
75048;SDS011;63803;53.120;8.764;2023-02-14T17:09:18;3.17;;;2.53;;
75048;SDS011;63803;53.120;8.764;2023-02-14T17:11:51;3.55;;;2.47;;
75048;SDS011;63803;53.120;8.764;2023-02-14T17:14:21;3.05;;;2.70;;
75048;SDS011;63803;53.120;8.764;2023-02-14T17:16:50;6.45;;;4.90;;
75048;SDS011;63803;53.120;8.764;2023-02-14T17:19:16;4.47;;;3.28;;
75048;SDS011;63803;53.120;8.764;2023-02-14T17:21:42;6.75;;;3.67;;
75048;SDS011;63803;53.120;8.764;2023-02-14T17:24:08;5.90;;;3.72;;
75048;SDS011;63803;53.120;8.764;2023-02-14T17:26:33;8.55;;;3.83;;
75048;SDS011;63803;53.120;8.764;2023-02-14T17:28:59;5.50;;;4.20;;